createdAt,value
2022-07-26T00:00:31.527Z,1.10
2022-07-26T00:03:01.890Z,1.03
2022-07-26T00:05:31.896Z,1.00
2022-07-26T00:08:11.638Z,1.10
2022-07-26T00:10:41.051Z,1.10
2022-07-26T00:13:10.207Z,1.30
2022-07-26T00:15:38.882Z,0.80
2022-07-26T00:18:11.915Z,1.20
2022-07-26T00:20:41.440Z,1.00
2022-07-26T00:23:10.348Z,1.20
2022-07-26T00:25:38.862Z,1.00
2022-07-26T00:28:07.129Z,0.90
2022-07-26T00:30:38.539Z,0.90
2022-07-26T00:33:08.454Z,0.90
2022-07-26T00:35:37.585Z,1.10
2022-07-26T00:38:06.312Z,1.17
2022-07-26T00:40:34.686Z,1.00
2022-07-26T00:43:03.168Z,1.00
2022-07-26T00:45:33.102Z,1.00
2022-07-26T00:48:02.207Z,0.90
2022-07-26T00:50:32.426Z,1.20
2022-07-26T00:53:02.363Z,1.13
2022-07-26T00:55:31.245Z,0.90
2022-07-26T00:58:01.349Z,1.23
2022-07-26T01:00:30.347Z,1.10
2022-07-26T01:03:00.728Z,0.70
2022-07-26T01:05:29.486Z,1.03
2022-07-26T01:07:59.779Z,0.90
2022-07-26T01:10:28.213Z,0.93
2022-07-26T01:12:56.832Z,1.40
2022-07-26T01:15:26.043Z,1.20
2022-07-26T01:17:54.262Z,1.00
2022-07-26T01:20:22.560Z,1.40
2022-07-26T01:22:52.213Z,1.00
2022-07-26T01:25:30.026Z,1.10
2022-07-26T01:27:58.290Z,1.10
2022-07-26T01:30:26.627Z,1.10
2022-07-26T01:32:55.056Z,0.93
2022-07-26T01:35:23.273Z,1.23
2022-07-26T01:37:52.798Z,1.00
2022-07-26T01:40:21.060Z,1.10
2022-07-26T01:42:49.124Z,0.90
2022-07-26T01:45:17.250Z,1.30
2022-07-26T01:47:50.075Z,1.10
2022-07-26T01:50:19.686Z,1.20
2022-07-26T01:52:47.857Z,1.53
2022-07-26T01:55:17.671Z,1.27
2022-07-26T02:02:26.173Z,2.03
2022-07-26T02:05:00.436Z,1.13
2022-07-26T02:07:30.059Z,1.20
2022-07-26T02:10:01.486Z,1.40
2022-07-26T02:12:31.476Z,1.37
2022-07-26T02:14:59.751Z,1.43
2022-07-26T02:17:28.190Z,1.50
2022-07-26T02:19:56.679Z,1.20
2022-07-26T02:22:25.258Z,1.00
2022-07-26T02:24:54.749Z,1.40
2022-07-26T02:27:22.922Z,1.33
2022-07-26T02:29:52.572Z,1.77
2022-07-26T02:32:20.755Z,1.40
2022-07-26T02:34:48.920Z,1.20
2022-07-26T02:37:17.236Z,1.47
2022-07-26T02:39:45.487Z,1.60
2022-07-26T02:42:13.765Z,1.60
2022-07-26T02:44:42.347Z,1.27
2022-07-26T02:47:12.784Z,1.37
2022-07-26T02:49:40.990Z,1.30
2022-07-26T02:52:09.190Z,1.83
2022-07-26T02:54:37.479Z,1.37
2022-07-26T02:57:05.953Z,1.53
2022-07-26T02:59:34.334Z,1.23
2022-07-26T03:02:02.656Z,1.10
2022-07-26T03:04:32.299Z,1.60
2022-07-26T03:07:00.482Z,1.37
2022-07-26T03:09:28.618Z,1.20
2022-07-26T03:11:56.736Z,1.70
2022-07-26T03:14:24.905Z,1.20
2022-07-26T03:16:53.113Z,1.77
2022-07-26T03:19:21.286Z,1.70
2022-07-26T03:21:50.809Z,1.50
2022-07-26T03:24:19.052Z,1.50
2022-07-26T03:26:47.124Z,2.20
2022-07-26T03:29:15.389Z,1.70
2022-07-26T03:31:43.687Z,1.40
2022-07-26T03:34:11.860Z,1.30
2022-07-26T03:36:40.029Z,1.73
2022-07-26T03:39:09.427Z,1.70
2022-07-26T03:41:37.582Z,1.57
2022-07-26T03:44:06.409Z,1.30
2022-07-26T03:46:34.897Z,1.33
2022-07-26T03:49:03.372Z,1.80
2022-07-26T03:51:33.929Z,1.80
2022-07-26T03:54:02.447Z,1.50
2022-07-26T03:56:32.098Z,1.53
2022-07-26T03:59:06.857Z,1.57
2022-07-26T04:01:36.012Z,1.67
2022-07-26T04:04:04.817Z,1.50
2022-07-26T04:06:33.416Z,1.43
2022-07-26T04:09:02.541Z,1.73
2022-07-26T04:11:35.737Z,1.70
2022-07-26T04:14:04.210Z,1.67
2022-07-26T04:16:32.635Z,1.60
2022-07-26T04:19:00.895Z,1.60
2022-07-26T04:21:29.033Z,1.60
2022-07-26T04:23:57.182Z,1.70
2022-07-26T04:26:25.499Z,1.47
2022-07-26T04:28:55.135Z,1.67
2022-07-26T04:31:23.343Z,1.50
2022-07-26T04:33:51.733Z,1.30
2022-07-26T04:36:19.907Z,1.77
2022-07-26T04:38:48.086Z,1.70
2022-07-26T04:41:16.740Z,1.70
2022-07-26T04:43:44.852Z,1.30
2022-07-26T04:46:14.509Z,1.40
2022-07-26T04:48:42.761Z,1.43
2022-07-26T04:51:10.986Z,1.70
2022-07-26T04:53:39.175Z,1.80
2022-07-26T04:56:07.788Z,1.20
2022-07-26T04:58:36.024Z,1.80
2022-07-26T05:01:11.526Z,1.60
2022-07-26T05:03:41.329Z,1.57
2022-07-26T05:06:09.653Z,1.70
2022-07-26T05:08:37.831Z,1.57
2022-07-26T05:11:06.068Z,1.80
2022-07-26T05:13:34.246Z,1.57
2022-07-26T05:16:02.558Z,1.60
2022-07-26T05:18:45.635Z,1.60
2022-07-26T05:21:28.181Z,2.27
2022-07-26T05:23:56.509Z,1.50
2022-07-26T05:26:24.770Z,1.93
2022-07-26T05:28:52.988Z,1.97
2022-07-26T05:31:21.220Z,2.00
2022-07-26T05:33:49.454Z,2.27
2022-07-26T05:36:19.607Z,2.17
2022-07-26T05:39:16.014Z,1.43
2022-07-26T05:41:44.533Z,2.10
2022-07-26T05:44:12.689Z,1.80
2022-07-26T05:46:41.170Z,2.10
2022-07-26T05:49:09.539Z,2.17
2022-07-26T05:51:39.349Z,1.90
2022-07-26T05:54:07.982Z,2.70
2022-07-26T05:56:36.450Z,2.27
2022-07-26T05:59:04.888Z,2.20
2022-07-26T06:01:34.389Z,2.23
2022-07-26T06:04:02.636Z,2.00
2022-07-26T06:06:30.949Z,2.60
2022-07-26T06:09:00.556Z,2.57
2022-07-26T06:11:28.796Z,2.30
2022-07-26T06:13:57.043Z,2.20
2022-07-26T06:16:25.224Z,2.30
2022-07-26T06:18:53.456Z,2.50
2022-07-26T06:21:21.655Z,2.40
2022-07-26T06:23:51.588Z,2.37
2022-07-26T06:26:23.777Z,2.40
2022-07-26T06:28:52.138Z,2.87
2022-07-26T06:31:20.550Z,2.53
2022-07-26T06:33:48.842Z,2.37
2022-07-26T06:36:16.964Z,2.40
2022-07-26T06:38:45.234Z,2.20
2022-07-26T06:41:17.136Z,2.60
2022-07-26T06:43:46.719Z,2.30
2022-07-26T06:46:15.029Z,2.27
2022-07-26T06:48:47.674Z,2.00
2022-07-26T06:51:22.147Z,2.40
2022-07-26T06:53:50.518Z,2.60
2022-07-26T06:56:19.242Z,2.73
2022-07-26T06:59:09.289Z,2.50
2022-07-26T07:01:59.563Z,2.40
2022-07-26T07:04:25.985Z,2.77
2022-07-26T07:06:55.228Z,3.00
2022-07-26T07:09:25.562Z,2.80
2022-07-26T07:12:00.252Z,2.83
2022-07-26T07:14:35.650Z,3.00
2022-07-26T07:17:10.378Z,2.93
2022-07-26T07:19:41.377Z,2.90
2022-07-26T07:22:12.630Z,2.50
2022-07-26T07:24:42.061Z,2.50
2022-07-26T07:27:14.862Z,3.23
2022-07-26T07:29:45.750Z,3.30
2022-07-26T07:32:16.097Z,3.10
2022-07-26T07:34:47.668Z,3.10
2022-07-26T07:37:16.252Z,3.30
2022-07-26T07:39:44.553Z,2.80
2022-07-26T07:42:18.911Z,3.00
2022-07-26T07:44:50.145Z,3.27
2022-07-26T07:47:18.711Z,3.80
2022-07-26T07:49:47.231Z,3.17
2022-07-26T07:52:17.072Z,2.60
2022-07-26T07:54:50.570Z,2.90
2022-07-26T07:57:21.725Z,3.20
2022-07-26T07:59:59.158Z,3.53
2022-07-26T08:02:29.535Z,3.40
2022-07-26T08:05:03.152Z,3.30
2022-07-26T08:07:43.226Z,3.17
2022-07-26T08:10:13.832Z,2.83
2022-07-26T08:12:43.310Z,3.07
2022-07-26T08:15:15.629Z,2.97
2022-07-26T08:17:51.321Z,3.00
2022-07-26T08:20:25.801Z,3.17
2022-07-26T08:22:55.261Z,3.10
2022-07-26T08:25:24.621Z,3.63
2022-07-26T08:28:15.523Z,3.43
2022-07-26T08:30:43.235Z,2.90
2022-07-26T08:33:13.263Z,3.00
2022-07-26T08:35:41.742Z,2.60
2022-07-26T08:38:10.025Z,2.90
2022-07-26T08:40:38.378Z,2.87
2022-07-26T08:43:06.697Z,3.27
2022-07-26T08:45:37.711Z,3.13
2022-07-26T08:48:17.173Z,3.03
2022-07-26T08:50:49.868Z,3.30
2022-07-26T08:53:23.305Z,3.50
2022-07-26T08:56:06.883Z,3.50
2022-07-26T08:58:44.160Z,3.90
2022-07-26T09:01:14.061Z,4.00
2022-07-26T09:03:44.496Z,3.70
2022-07-26T09:06:19.156Z,3.83
2022-07-26T09:08:49.963Z,3.87
2022-07-26T09:11:33.301Z,3.90
2022-07-26T09:14:04.385Z,4.07
2022-07-26T09:16:39.698Z,3.57
2022-07-26T09:19:20.591Z,3.80
2022-07-26T09:21:49.605Z,3.83
2022-07-26T09:24:35.051Z,3.73
2022-07-26T09:27:06.337Z,3.43
2022-07-26T09:29:44.857Z,3.33
2022-07-26T09:32:17.081Z,3.40
2022-07-26T09:34:52.681Z,3.47
2022-07-26T09:37:34.941Z,4.23
2022-07-26T09:40:05.671Z,4.00
2022-07-26T09:42:33.823Z,4.13
2022-07-26T09:45:03.231Z,3.70
2022-07-26T09:47:38.677Z,4.00
2022-07-26T09:50:13.646Z,4.23
2022-07-26T09:52:41.999Z,4.13
2022-07-26T09:55:13.166Z,4.17
2022-07-26T09:57:41.419Z,4.17
2022-07-26T10:00:11.155Z,4.23
2022-07-26T10:02:39.488Z,4.30
2022-07-26T10:05:08.356Z,4.60
2022-07-26T10:07:38.373Z,4.33
2022-07-26T10:10:08.962Z,4.73
2022-07-26T10:12:37.435Z,4.23
2022-07-26T10:15:06.295Z,5.70
2022-07-26T10:17:45.259Z,5.97
2022-07-26T10:20:52.047Z,5.77
2022-07-26T10:23:43.012Z,5.50
2022-07-26T10:26:13.782Z,5.50
2022-07-26T10:28:42.966Z,5.53
2022-07-26T10:31:33.886Z,6.07
2022-07-26T10:34:04.347Z,5.67
2022-07-26T10:36:35.469Z,5.83
2022-07-26T10:39:08.194Z,6.23
2022-07-26T10:41:38.969Z,6.13
2022-07-26T10:44:14.783Z,5.90
2022-07-26T10:47:03.689Z,5.33
2022-07-26T10:49:34.880Z,6.30
2022-07-26T10:52:13.845Z,6.40
2022-07-26T10:55:19.312Z,5.80
2022-07-26T10:57:49.507Z,5.80
2022-07-26T11:00:20.762Z,5.13
2022-07-26T11:02:52.883Z,3.87
2022-07-26T11:05:21.744Z,3.40
2022-07-26T11:07:52.524Z,3.90
2022-07-26T11:10:30.722Z,3.10
2022-07-26T11:13:17.080Z,3.40
2022-07-26T11:15:48.968Z,2.40
2022-07-26T11:18:23.410Z,2.40
2022-07-26T11:20:54.323Z,2.30
2022-07-26T11:23:33.491Z,2.60
2022-07-26T11:26:14.536Z,2.87
2022-07-26T11:28:52.948Z,2.60
2022-07-26T11:31:55.780Z,2.53
2022-07-26T11:34:19.532Z,2.20
2022-07-26T11:36:48.357Z,2.20
2022-07-26T11:39:21.701Z,1.93
2022-07-26T11:41:52.382Z,1.97
2022-07-26T11:44:23.405Z,2.57
2022-07-26T11:46:53.026Z,2.03
2022-07-26T11:49:41.521Z,2.30
2022-07-26T11:52:13.679Z,2.23
2022-07-26T11:54:48.118Z,2.67
2022-07-26T11:57:19.443Z,2.20
2022-07-26T11:59:50.738Z,2.70
2022-07-26T12:02:19.266Z,2.30
2022-07-26T12:04:47.466Z,2.40
2022-07-26T12:07:18.443Z,2.43
2022-07-26T12:09:49.783Z,2.50
2022-07-26T12:12:28.136Z,2.07
2022-07-26T12:15:00.458Z,2.73
2022-07-26T12:17:35.335Z,2.40
2022-07-26T12:20:14.193Z,2.90
2022-07-26T12:22:43.332Z,3.80
2022-07-26T12:25:12.546Z,2.90
2022-07-26T12:27:50.413Z,2.67
2022-07-26T12:30:19.099Z,2.13
2022-07-26T12:32:51.623Z,2.20
2022-07-26T12:35:29.417Z,1.70
2022-07-26T12:37:58.073Z,1.90
2022-07-26T12:40:28.114Z,1.60
2022-07-26T12:43:02.108Z,1.80
2022-07-26T12:45:33.016Z,1.90
2022-07-26T12:48:03.389Z,1.80
2022-07-26T12:50:33.052Z,1.90
2022-07-26T12:53:05.493Z,1.60
2022-07-26T12:55:34.668Z,1.73
2022-07-26T12:58:04.410Z,2.20
2022-07-26T13:00:32.649Z,2.20
2022-07-26T13:03:00.771Z,2.20
2022-07-26T13:05:29.003Z,2.67
2022-07-26T13:07:59.436Z,2.50
2022-07-26T13:10:33.535Z,2.20
2022-07-26T13:13:04.522Z,1.90
2022-07-26T13:15:37.131Z,2.30
2022-07-26T13:18:07.549Z,1.80
2022-07-26T13:20:35.838Z,2.13
2022-07-26T13:23:04.005Z,2.00
2022-07-26T13:25:39.656Z,1.70
2022-07-26T13:28:12.370Z,2.07
2022-07-26T13:30:43.492Z,1.80
2022-07-26T13:33:12.895Z,1.87
2022-07-26T13:35:42.825Z,2.20
2022-07-26T13:38:11.903Z,1.73
2022-07-26T13:40:40.602Z,1.30
2022-07-26T13:43:10.558Z,1.40
2022-07-26T13:45:39.064Z,1.60
2022-07-26T13:48:09.147Z,1.30
2022-07-26T13:50:37.613Z,1.90
2022-07-26T13:53:07.779Z,1.80
2022-07-26T13:55:36.165Z,1.50
2022-07-26T13:58:09.753Z,1.70
2022-07-26T14:00:42.084Z,2.00
2022-07-26T14:03:10.744Z,2.00
2022-07-26T14:05:39.882Z,1.63
2022-07-26T14:08:08.093Z,1.90
2022-07-26T14:10:39.636Z,2.07
2022-07-26T14:13:08.865Z,1.60
2022-07-26T14:15:37.177Z,1.73
2022-07-26T14:18:06.947Z,1.83
2022-07-26T14:20:35.299Z,1.70
2022-07-26T14:23:03.987Z,2.23
2022-07-26T14:25:33.413Z,1.87
2022-07-26T14:28:01.638Z,1.53
2022-07-26T14:30:29.938Z,1.83
2022-07-26T14:32:58.292Z,1.83
2022-07-26T14:35:28.143Z,2.20
2022-07-26T14:37:56.549Z,1.80
2022-07-26T14:40:24.973Z,1.60
2022-07-26T14:42:54.417Z,1.67
2022-07-26T14:45:23.507Z,1.97
2022-07-26T14:47:52.041Z,2.00
2022-07-26T14:50:22.863Z,1.97
2022-07-26T14:52:53.710Z,1.87
2022-07-26T14:55:25.607Z,1.60
2022-07-26T14:57:54.141Z,1.73
2022-07-26T15:00:22.657Z,1.57
2022-07-26T15:02:51.459Z,1.73
2022-07-26T15:05:21.211Z,1.80
2022-07-26T15:07:49.846Z,1.60
2022-07-26T15:10:29.148Z,1.77
2022-07-26T15:12:58.006Z,1.50
2022-07-26T15:15:26.817Z,1.50
2022-07-26T15:17:55.462Z,1.60
2022-07-26T15:20:24.251Z,1.80
2022-07-26T15:22:53.911Z,2.00
2022-07-26T15:25:24.472Z,1.87
2022-07-26T15:27:52.879Z,1.70
2022-07-26T15:30:21.049Z,1.83
2022-07-26T15:32:53.200Z,1.53
2022-07-26T15:35:22.172Z,1.30
2022-07-26T15:37:50.439Z,1.40
2022-07-26T15:40:23.955Z,1.40
2022-07-26T15:42:54.244Z,1.30
2022-07-26T15:45:26.126Z,1.40
2022-07-26T15:48:00.930Z,1.30
2022-07-26T15:50:33.240Z,1.10
2022-07-26T15:53:01.546Z,1.57
2022-07-26T15:55:29.725Z,1.50
2022-07-26T15:57:59.257Z,1.23
2022-07-26T16:00:27.510Z,1.87
2022-07-26T16:02:55.727Z,1.30
2022-07-26T16:05:24.046Z,1.60
2022-07-26T16:07:52.319Z,1.40
2022-07-26T16:10:20.644Z,1.90
2022-07-26T16:12:49.131Z,1.57
2022-07-26T16:15:19.217Z,1.27
2022-07-26T16:17:47.596Z,1.50
2022-07-26T16:20:19.324Z,1.50
2022-07-26T16:22:48.215Z,1.73
2022-07-26T16:25:16.295Z,1.30
2022-07-26T16:27:44.915Z,1.60
2022-07-26T16:30:14.509Z,1.57
2022-07-26T16:32:44.276Z,1.60
2022-07-26T16:35:13.217Z,1.30
2022-07-26T16:37:41.668Z,1.43
2022-07-26T16:40:11.353Z,1.40
2022-07-26T16:42:39.706Z,1.90
2022-07-26T16:45:09.988Z,1.50
2022-07-26T16:47:38.235Z,1.80
2022-07-26T16:50:08.741Z,1.90
2022-07-26T16:52:37.079Z,2.33
2022-07-26T16:55:10.620Z,1.80
2022-07-26T16:57:39.395Z,1.67
2022-07-26T17:00:10.816Z,1.43
2022-07-26T17:02:39.861Z,1.47
2022-07-26T17:05:10.612Z,1.50
2022-07-26T17:07:38.905Z,1.70
2022-07-26T17:10:09.152Z,1.40
2022-07-26T17:12:37.630Z,1.30
2022-07-26T17:15:06.818Z,1.33
2022-07-26T17:17:35.208Z,1.50
2022-07-26T17:20:03.499Z,1.30
2022-07-26T17:22:33.257Z,1.13
2022-07-26T17:25:01.586Z,1.30
2022-07-26T17:27:29.837Z,1.20
2022-07-26T17:29:59.135Z,1.20
2022-07-26T17:32:30.072Z,1.13
2022-07-26T17:34:58.322Z,1.20
2022-07-26T17:37:26.466Z,1.30
2022-07-26T17:39:58.312Z,1.10
2022-07-26T17:42:26.567Z,1.20
2022-07-26T17:44:54.722Z,1.57
2022-07-26T17:47:28.151Z,1.33
2022-07-26T17:49:57.114Z,1.00
2022-07-26T17:52:27.107Z,0.70
2022-07-26T17:54:57.728Z,1.07
2022-07-26T17:57:27.379Z,1.30
2022-07-26T17:59:55.799Z,0.90
2022-07-26T18:02:24.136Z,0.93
2022-07-26T18:04:52.461Z,1.27
2022-07-26T18:07:20.725Z,1.30
2022-07-26T18:09:48.880Z,1.40
2022-07-26T18:12:17.374Z,1.10
2022-07-26T18:14:46.926Z,1.10
2022-07-26T18:17:15.576Z,1.63
2022-07-26T18:19:43.922Z,1.50
2022-07-26T18:22:12.124Z,1.50
2022-07-26T18:24:40.406Z,1.70
2022-07-26T18:27:08.876Z,1.47
2022-07-26T18:29:37.161Z,1.17
2022-07-26T18:32:07.858Z,1.40
2022-07-26T18:34:36.186Z,1.50
2022-07-26T18:37:05.193Z,1.30
2022-07-26T18:39:33.514Z,1.13
2022-07-26T18:42:01.913Z,1.00
2022-07-26T18:44:30.734Z,1.13
2022-07-26T18:47:01.385Z,1.10
2022-07-26T18:49:32.652Z,1.00
2022-07-26T18:52:07.483Z,1.50
2022-07-26T18:54:37.483Z,1.00
2022-07-26T18:57:06.105Z,1.03
2022-07-26T18:59:34.353Z,1.30
2022-07-26T19:02:02.702Z,1.20
2022-07-26T19:04:32.484Z,1.10
2022-07-26T19:07:00.728Z,1.30
2022-07-26T19:09:29.094Z,1.30
2022-07-26T19:11:57.347Z,1.10
2022-07-26T19:14:25.547Z,1.37
2022-07-26T19:16:54.044Z,1.23
2022-07-26T19:19:22.281Z,1.20
2022-07-26T19:21:51.858Z,1.60
2022-07-26T19:24:20.298Z,1.00
2022-07-26T19:26:48.332Z,1.40
2022-07-26T19:29:16.509Z,1.40
2022-07-26T19:31:46.035Z,1.33
2022-07-26T19:34:15.417Z,1.20
2022-07-26T19:36:43.703Z,1.40
2022-07-26T19:39:13.692Z,0.90
2022-07-26T19:41:42.247Z,1.00
2022-07-26T19:44:10.780Z,1.00
2022-07-26T19:46:39.176Z,1.00
2022-07-26T19:49:11.073Z,1.00
2022-07-26T19:51:40.025Z,0.97
2022-07-26T19:54:09.764Z,0.97
2022-07-26T19:56:41.996Z,1.20
2022-07-26T19:59:11.144Z,0.90
2022-07-26T20:01:40.191Z,1.00
2022-07-26T20:04:08.583Z,1.27
2022-07-26T20:06:41.253Z,0.80
2022-07-26T20:09:10.199Z,1.33
2022-07-26T20:11:40.452Z,1.30
2022-07-26T20:14:10.927Z,1.23
2022-07-26T20:16:39.504Z,1.20
2022-07-26T20:19:08.528Z,1.10
2022-07-26T20:21:37.412Z,1.20
2022-07-26T20:24:08.546Z,1.37
2022-07-26T20:26:38.143Z,0.90
2022-07-26T20:29:08.898Z,1.00
2022-07-26T20:31:37.527Z,1.40
2022-07-26T20:34:06.000Z,1.40
2022-07-26T20:36:34.216Z,1.50
2022-07-26T20:39:05.123Z,1.20
2022-07-26T20:41:33.806Z,1.33
2022-07-26T20:44:03.449Z,1.30
2022-07-26T20:46:40.295Z,1.83
2022-07-26T20:49:09.756Z,1.50
2022-07-26T20:51:39.298Z,1.23
2022-07-26T20:54:08.774Z,1.60
2022-07-26T20:56:38.883Z,1.40
2022-07-26T20:59:07.662Z,1.40
2022-07-26T21:01:37.698Z,1.43
2022-07-26T21:04:07.334Z,1.40
2022-07-26T21:06:35.918Z,1.77
2022-07-26T21:09:09.643Z,1.70
2022-07-26T21:11:39.744Z,1.60
2022-07-26T21:14:08.862Z,1.50
2022-07-26T21:16:38.761Z,1.50
2022-07-26T21:19:06.955Z,1.53
2022-07-26T21:21:37.065Z,1.10
2022-07-26T21:24:06.756Z,2.33
2022-07-26T21:26:35.362Z,1.70
2022-07-26T21:29:04.099Z,1.87
2022-07-26T21:31:32.733Z,1.87
2022-07-26T21:34:02.851Z,1.53
2022-07-26T21:36:31.529Z,1.90
2022-07-26T21:38:59.988Z,1.80
2022-07-26T21:41:28.990Z,1.20
2022-07-26T21:43:57.768Z,1.77
2022-07-26T21:46:26.214Z,1.90
2022-07-26T21:48:54.749Z,1.93
2022-07-26T21:51:24.736Z,2.10
2022-07-26T21:53:53.771Z,2.00
2022-07-26T21:56:22.181Z,1.70
2022-07-26T21:58:50.542Z,1.70
2022-07-26T22:01:19.611Z,1.77
2022-07-26T22:03:48.414Z,1.70
2022-07-26T22:06:20.232Z,1.97
2022-07-26T22:08:50.723Z,1.60
2022-07-26T22:11:19.397Z,1.50
2022-07-26T22:13:48.872Z,1.77
2022-07-26T22:16:18.039Z,1.83
2022-07-26T22:18:47.155Z,1.73
2022-07-26T22:21:16.099Z,1.93
2022-07-26T22:23:44.324Z,1.57
2022-07-26T22:26:16.761Z,1.70
2022-07-26T22:28:45.095Z,1.93
2022-07-26T22:31:13.807Z,2.27
2022-07-26T22:33:42.079Z,2.23
2022-07-26T22:36:10.532Z,2.27
2022-07-26T22:38:38.815Z,2.10
2022-07-26T22:41:07.400Z,1.60
2022-07-26T22:43:37.801Z,2.33
2022-07-26T22:46:06.206Z,1.70
2022-07-26T22:48:38.066Z,1.70
2022-07-26T22:51:06.906Z,1.80
2022-07-26T22:53:35.164Z,2.43
2022-07-26T22:56:03.367Z,1.90
2022-07-26T22:58:31.665Z,1.63
2022-07-26T23:01:01.236Z,1.97
2022-07-26T23:03:29.807Z,2.10
2022-07-26T23:05:59.577Z,2.43
2022-07-26T23:11:16.213Z,2.00
2022-07-26T23:13:44.391Z,2.17
2022-07-26T23:16:14.002Z,1.63
2022-07-26T23:18:42.298Z,1.63
2022-07-26T23:21:10.458Z,2.03
2022-07-26T23:23:38.628Z,1.77
2022-07-26T23:26:06.850Z,1.60
2022-07-26T23:28:37.666Z,1.97
2022-07-26T23:31:08.659Z,1.43
2022-07-26T23:33:51.473Z,1.83
2022-07-26T23:36:26.605Z,1.60
2022-07-26T23:38:55.188Z,1.80
2022-07-26T23:41:23.559Z,2.00
2022-07-26T23:43:52.008Z,1.87
2022-07-26T23:46:20.177Z,1.87
2022-07-26T23:48:50.239Z,1.30
2022-07-26T23:51:19.491Z,1.40
2022-07-26T23:53:48.329Z,1.60
2022-07-26T23:56:16.689Z,1.80
2022-07-26T23:58:45.092Z,1.40
